TimeCDT,TemperatureF,Dew PointF,Humidity,Sea Level PressureIn,VisibilityMPH,Wind Direction,Wind SpeedMPH,Gust SpeedMPH,PrecipitationIn,Events,Conditions,WindDirDegrees,DateUTC
12:14 AM,66.2,53.4,63,29.90,10.0,ESE,5.8,-,N/A,,Scattered Clouds,110,2013-06-09 05:14:00
12:34 AM,66.2,52.7,62,29.90,10.0,ESE,4.6,-,N/A,,Mostly Cloudy,110,2013-06-09 05:34:00
12:54 AM,65.8,52.7,62,29.91,10.0,SE,5.8,-,N/A,,Scattered Clouds,140,2013-06-09 05:54:00
1:14 AM,65.3,52.7,64,29.91,10.0,SE,6.9,-,N/A,,Scattered Clouds,140,2013-06-09 06:14:00
1:34 AM,64.4,53.2,67,29.91,10.0,SE,5.8,-,N/A,Rain,Light Rain,140,2013-06-09 06:34:00
1:54 AM,64.0,53.6,69,29.90,10.0,SE,3.5,-,N/A,Rain,Light Rain,130,2013-06-09 06:54:00
2:14 AM,63.3,54.1,72,29.90,7.0,SE,5.8,-,N/A,Rain,Light Rain,130,2013-06-09 07:14:00
2:34 AM,62.6,55.0,76,29.90,10.0,ESE,5.8,-,0.01,Rain,Light Rain,110,2013-06-09 07:34:00
2:54 AM,62.6,54.7,75,29.89,10.0,SE,4.6,-,0.01,,Light Drizzle,130,2013-06-09 07:54:00
3:14 AM,61.9,54.9,78,29.89,10.0,SE,8.1,-,0.01,Rain,Light Rain,130,2013-06-09 08:14:00
3:34 AM,61.2,55.4,81,29.87,7.0,ESE,5.8,-,0.05,Rain,Light Rain,120,2013-06-09 08:34:00
3:54 AM,60.3,55.4,84,29.87,7.0,East,10.4,-,0.06,Rain,Light Rain,100,2013-06-09 08:54:00
4:14 AM,59.9,55.6,86,29.87,7.0,East,8.1,-,0.01,Rain,Light Rain,100,2013-06-09 09:14:00
4:34 AM,59.4,55.8,88,29.86,5.0,East,6.9,-,0.03,Rain,Light Rain,100,2013-06-09 09:34:00
4:54 AM,59.2,55.9,89,29.86,7.0,ESE,6.9,-,0.05,Rain,Light Rain,120,2013-06-09 09:54:00
5:14 AM,59.4,55.8,88,29.85,7.0,East,6.9,-,0.01,Rain,Light Rain,100,2013-06-09 10:14:00
5:34 AM,59.4,55.6,87,29.84,7.0,East,5.8,-,0.03,Rain,Rain,90,2013-06-09 10:34:00
5:54 AM,59.9,55.6,86,29.85,7.0,ESE,6.9,-,0.04,Rain,Light Rain,110,2013-06-09 10:54:00
6:14 AM,59.5,55.8,87,29.85,7.0,East,8.1,-,0.01,Rain,Light Rain,100,2013-06-09 11:14:00
6:34 AM,58.5,56.1,92,29.85,5.0,ESE,11.5,-,0.04,Rain,Light Rain,110,2013-06-09 11:34:00
6:54 AM,58.3,56.3,93,29.84,3.0,East,11.5,16.1,0.08,Rain,Light Rain,100,2013-06-09 11:54:00
7:14 AM,58.1,56.3,94,29.84,4.0,East,8.1,-,0.02,Rain,Light Rain,100,2013-06-09 12:14:00
7:34 AM,58.1,56.3,94,29.82,5.0,East,8.1,-,0.04,Rain,Light Rain,100,2013-06-09 12:34:00
7:54 AM,58.1,56.3,94,29.82,5.0,East,9.2,18.4,0.06,Rain,Light Rain,100,2013-06-09 12:54:00
8:14 AM,58.1,56.3,94,29.82,10.0,East,10.4,19.6,N/A,,Overcast,100,2013-06-09 13:14:00
8:34 AM,58.1,56.3,94,29.82,10.0,ESE,10.4,17.3,N/A,,Overcast,110,2013-06-09 13:34:00
8:54 AM,58.5,56.5,93,29.81,10.0,ESE,9.2,18.4,N/A,Rain,Light Rain,110,2013-06-09 13:54:00
9:14 AM,59.2,55.4,87,29.81,10.0,East,11.5,18.4,N/A,,Overcast,100,2013-06-09 14:14:00
9:34 AM,59.7,54.9,84,29.81,10.0,East,10.4,19.6,N/A,,Overcast,100,2013-06-09 14:34:00
9:54 AM,60.1,54.1,81,29.81,10.0,East,10.4,16.1,N/A,,Overcast,100,2013-06-09 14:54:00
10:14 AM,60.8,54.1,79,29.80,10.0,East,11.5,19.6,N/A,,Overcast,100,2013-06-09 15:14:00
10:34 AM,61.7,54.1,76,29.80,10.0,East,10.4,16.1,N/A,,Mostly Cloudy,100,2013-06-09 15:34:00
10:54 AM,62.1,53.8,74,29.81,10.0,ESE,8.1,18.4,N/A,,Mostly Cloudy,120,2013-06-09 15:54:00
11:14 AM,62.6,54.1,74,29.81,10.0,SE,8.1,-,N/A,,Overcast,130,2013-06-09 16:14:00
11:34 AM,62.6,53.6,72,29.80,10.0,ESE,10.4,17.3,N/A,,Overcast,110,2013-06-09 16:34:00
11:54 AM,62.6,53.6,72,29.81,10.0,SE,6.9,-,N/A,,Overcast,130,2013-06-09 16:54:00
12:14 PM,62.6,53.8,73,29.81,10.0,SE,8.1,18.4,N/A,,Overcast,130,2013-06-09 17:14:00
12:34 PM,62.1,54.5,76,29.81,5.0,SE,6.9,-,0.01,Rain,Light Rain,130,2013-06-09 17:34:00
12:54 PM,59.7,56.3,88,29.81,2.5,Calm,Calm,-,0.05,Rain,Light Rain,0,2013-06-09 17:54:00
1:14 PM,59.4,57.4,93,29.81,2.5,ESE,3.5,-,0.02,Rain,Light Rain,120,2013-06-09 18:14:00
1:34 PM,59.9,58.1,94,29.81,1.5,ESE,3.5,-,0.07,Rain,Light Rain,120,2013-06-09 18:34:00
1:54 PM,60.1,58.3,94,29.81,2.0,East,3.5,-,0.10,Rain,Light Rain,100,2013-06-09 18:54:00
2:14 PM,60.4,58.8,94,29.81,4.0,ESE,4.6,-,N/A,Rain,Light Rain,110,2013-06-09 19:14:00
2:34 PM,60.8,59.2,94,29.80,7.0,ESE,4.6,-,0.01,,Overcast,110,2013-06-09 19:34:00
2:54 PM,61.0,59.4,94,29.80,7.0,ESE,4.6,-,0.01,,Overcast,110,2013-06-09 19:54:00
3:14 PM,61.3,59.9,95,29.80,10.0,ESE,3.5,-,N/A,,Overcast,110,2013-06-09 20:14:00
3:34 PM,62.1,60.4,94,29.79,10.0,ESE,6.9,-,N/A,,Overcast,110,2013-06-09 20:34:00
3:54 PM,63.5,60.4,90,29.79,10.0,SE,5.8,-,N/A,,Overcast,140,2013-06-09 20:54:00
4:14 PM,64.6,59.9,85,29.79,10.0,ESE,8.1,-,N/A,,Overcast,120,2013-06-09 21:14:00
4:34 PM,65.7,60.4,83,29.79,10.0,ESE,6.9,-,N/A,,Mostly Cloudy,120,2013-06-09 21:34:00
4:54 PM,66.9,60.4,80,29.79,10.0,SE,5.8,-,N/A,,Scattered Clouds,130,2013-06-09 21:54:00
5:14 PM,68.2,60.4,76,29.79,10.0,SE,5.8,-,N/A,,Mostly Cloudy,130,2013-06-09 22:14:00
5:34 PM,68.2,60.6,77,29.79,10.0,East,5.8,-,N/A,,Mostly Cloudy,100,2013-06-09 22:34:00
5:54 PM,69.1,60.8,75,29.78,10.0,ENE,9.2,-,N/A,,Scattered Clouds,70,2013-06-09 22:54:00
6:14 PM,69.8,61.0,73,29.78,10.0,East,6.9,-,N/A,,Scattered Clouds,100,2013-06-09 23:14:00
6:34 PM,69.1,60.8,75,29.78,10.0,East,9.2,-,N/A,,Mostly Cloudy,90,2013-06-09 23:34:00
6:54 PM,68.9,60.3,74,29.78,10.0,East,6.9,-,N/A,,Overcast,90,2013-06-09 23:54:00
7:14 PM,68.9,60.8,75,29.78,10.0,East,3.5,-,N/A,,Mostly Cloudy,90,2013-06-10 00:14:00
7:34 PM,68.5,60.8,76,29.79,10.0,East,5.8,-,N/A,,Mostly Cloudy,90,2013-06-10 00:34:00
7:54 PM,68.4,60.8,77,29.79,10.0,East,3.5,-,N/A,,Scattered Clouds,90,2013-06-10 00:54:00
8:14 PM,67.8,60.8,78,29.79,10.0,East,3.5,-,N/A,,Clear,80,2013-06-10 01:14:00
8:34 PM,67.3,60.8,80,29.79,10.0,East,3.5,-,N/A,,Clear,90,2013-06-10 01:34:00
8:54 PM,66.6,60.8,82,29.79,10.0,Calm,Calm,-,N/A,,Clear,0,2013-06-10 01:54:00
9:14 PM,65.8,60.8,84,29.80,10.0,Calm,Calm,-,N/A,,Clear,0,2013-06-10 02:14:00
9:34 PM,65.7,60.8,84,29.80,10.0,Calm,Calm,-,N/A,,Scattered Clouds,0,2013-06-10 02:34:00
9:54 PM,65.3,60.8,85,29.81,10.0,Calm,Calm,-,N/A,,Scattered Clouds,0,2013-06-10 02:54:00
10:14 PM,65.5,60.8,85,29.82,10.0,East,4.6,-,N/A,,Mostly Cloudy,80,2013-06-10 03:14:00
10:34 PM,65.3,61.0,86,29.82,10.0,East,3.5,-,N/A,,Mostly Cloudy,80,2013-06-10 03:34:00
10:54 PM,65.5,61.2,86,29.82,10.0,Calm,Calm,-,N/A,,Scattered Clouds,0,2013-06-10 03:54:00
11:14 PM,65.5,61.5,87,29.82,10.0,Calm,Calm,-,N/A,,Scattered Clouds,0,2013-06-10 04:14:00
11:34 PM,65.3,61.5,88,29.82,7.0,Calm,Calm,-,N/A,,Scattered Clouds,0,2013-06-10 04:34:00
11:54 PM,64.4,61.0,89,29.82,7.0,Calm,Calm,-,N/A,,Clear,0,2013-06-10 04:54:00